Flight Track Log - Related Links

Times and Time Zones

All times are in EDT time to prevent confusion due to time zone crossing. See the SWA3678 flight status page for this flight to view local times or setup timezone preferences in your user account.

Time Position Orientation Groundspeed Altitude Reporting Facility
EDT Latitude Longitude Course Direction KTS MPH feet Rate Location/Type
Sat 05:07:41 PM 26.0911 -80.0631 77° East 219 252 4,400  Level Miami Center
Sat 05:08:42 PM 26.1514 -80.0786 347° North 268 308 5,500 2,196 Climbing Miami Center
Sat 05:09:33 PM 26.2072 -80.1008 340° North 286 329 8,500 2,973 Climbing Miami Center
Sat 05:10:33 PM 26.2858 -80.1425 335° Northwest 304 350 11,000 1,250 Climbing Miami Center
Sat 05:11:33 PM 26.3706 -80.1867 335° Northwest 325 374 11,000 893 Level Miami Center
Sat 05:12:34 PM 26.4311 -80.2717 309° West 325 374 12,800 1,750 Climbing Miami Center
Sat 05:13:33 PM 26.4750 -80.3636 298° West 333 383 14,500 1,714 Climbing Miami Center
Sat 05:14:33 PM 26.5058 -80.4619 289° West 333 383 16,200 1,750 Climbing Miami Center
Sat 05:15:33 PM 26.5517 -80.5517 300° West 333 383 18,000 1,500 Climbing Miami Center
Sat 05:16:33 PM 26.6164 -80.6372 310° West 351 404 19,200 1,950 Climbing Miami Center
Sat 05:17:33 PM 26.6786 -80.7300 307° West 363 418 21,900 1,400 Climbing Miami Center
Sat 05:18:33 PM 26.7283 -80.8175 302° West 379 436 22,000 50 Climbing Miami Center
Sat 05:19:33 PM 26.7842 -80.9217 301° West 386 444 22,000  Level Miami Center
Sat 05:20:33 PM 26.8417 -81.0261 302° West 394 453 22,000  Level Miami Center
Sat 05:21:33 PM 26.8992 -81.1261 303° West 394 453 22,000  Level Miami Center
Sat 05:22:33 PM 26.9547 -81.2306 301° West 394 453 22,000  Level Miami Center
Sat 05:23:33 PM 27.0119 -81.3331 302° West 394 453 22,000  Level Miami Center
Sat 05:24:33 PM 27.0694 -81.4331 303° West 389 448 22,000  Level Miami Center
Sat 05:25:33 PM 27.1328 -81.5453 302° West 394 453 22,000  Level Miami Center
Sat 05:26:33 PM 27.1875 -81.6525 300° West 394 453 22,000 -800 Level Miami Center
Sat 05:27:33 PM 27.2428 -81.7506 302° West 389 448 20,400 -1,950 Descending Miami Center
Sat 05:28:33 PM 27.2900 -81.8367 302° West 373 429 18,100 -2,350 Descending Miami Center
Sat 05:29:33 PM 27.3489 -81.9442 302° West 373 429 15,700 -2,350 Descending Miami Center
Sat 05:30:33 PM 27.3978 -82.0353 301° West 362 417 13,400 -2,300 Descending Miami Center
Sat 05:31:33 PM 27.4467 -82.1264 301° West 357 411 11,100 -1,200 Descending Miami Center
Sat 05:32:33 PM 27.5064 -82.2039 311° West 339 390 11,000 -200 Descending Miami Center
Sat 05:33:33 PM 27.5644 -82.2675 316° Northwest 327 376 10,700 -750 Descending Miami Center
Sat 05:34:33 PM 27.6283 -82.3481 312° West 327 376 9,500 -1,081 Descending Miami Center
Sat 05:35:24 PM 27.6833 -82.4000 320° Northwest 289 333 8,700 -1,189 Descending Tampa TRACON
Sat 05:36:24 PM 27.7500 -82.4167 348° North 289 333 7,300 -1,500 Descending Tampa TRACON
Sat 05:37:24 PM 27.8333 -82.4167 360° North 284 327 5,700 -1,150 Descending Tampa TRACON
Sat 05:38:24 PM 27.9000 -82.4167 360° North 260 299 5,000 -350 Descending Tampa TRACON
Sat 05:39:24 PM 27.9667 -82.4167 360° North 242 278 5,000 -550 Level Tampa TRACON
Sat 05:40:24 PM 28.0333 -82.4167 360° North 231 266 3,900 -913 Descending Tampa TRACON
Sat 05:41:42 PM 28.0667 -82.4667 307° West 168 193 2,900 -905 Descending Tampa TRACON
Sat 05:42:30 PM 28.0667 -82.5000 270° West 148 170 2,000 -1,000 Descending Tampa TRACON
Sat 05:43:30 PM 28.0333 -82.5333 221° Southwest 139 160 1,100 -793 Descending Tampa TRACON
Sat 05:44:31 PM 28.0000 -82.5333 180° South 131 151 400 -689 Descending Tampa TRACON
Sat 05:46:00 PM 27.9755 -82.5332 190° South  Level Estimated
Sat 05:53:00 PM 27.9755 -82.5332 190° South  Level Estimated

Login

Don't have an account? Register now (free) for customized features, flight alerts, and more!